sensor_id;sensor_type;location;lat;lon;timestamp;pressure;altitude;pressure_sealevel;temperature;humidity
75549;BME280;64133;56.002;37.208;2023-02-28T00:01:23;99486.88;;;-9.07;82.85
75549;BME280;64133;56.002;37.208;2023-02-28T00:06:28;99464.35;;;-9.08;82.67
75549;BME280;64133;56.002;37.208;2023-02-28T00:11:33;99473.70;;;-9.07;82.60
75549;BME280;64133;56.002;37.208;2023-02-28T00:16:38;99471.56;;;-9.11;82.55
75549;BME280;64133;56.002;37.208;2023-02-28T00:21:42;99472.00;;;-9.11;82.52
75549;BME280;64133;56.002;37.208;2023-02-28T00:26:47;99466.91;;;-9.17;82.48
75549;BME280;64133;56.002;37.208;2023-02-28T00:31:52;99466.05;;;-9.08;82.50
75549;BME280;64133;56.002;37.208;2023-02-28T00:36:56;99454.14;;;-9.03;82.44
75549;BME280;64133;56.002;37.208;2023-02-28T00:42:01;99447.78;;;-9.09;82.25
75549;BME280;64133;56.002;37.208;2023-02-28T00:47:06;99434.61;;;-9.18;82.41
75549;BME280;64133;56.002;37.208;2023-02-28T00:52:11;99429.49;;;-9.20;82.45
75549;BME280;64133;56.002;37.208;2023-02-28T00:57:16;99419.71;;;-9.16;82.61
75549;BME280;64133;56.002;37.208;2023-02-28T01:02:20;99408.25;;;-9.17;82.60
75549;BME280;64133;56.002;37.208;2023-02-28T01:07:25;99400.98;;;-9.10;82.64
75549;BME280;64133;56.002;37.208;2023-02-28T01:12:30;99384.42;;;-9.12;82.66
75549;BME280;64133;56.002;37.208;2023-02-28T01:17:35;99371.23;;;-9.05;82.72
75549;BME280;64133;56.002;37.208;2023-02-28T01:22:39;99364.39;;;-8.92;82.84
75549;BME280;64133;56.002;37.208;2023-02-28T01:27:44;99348.63;;;-8.93;82.60
75549;BME280;64133;56.002;37.208;2023-02-28T01:32:48;99331.22;;;-8.98;82.56
75549;BME280;64133;56.002;37.208;2023-02-28T01:37:53;99312.91;;;-8.87;82.65
75549;BME280;64133;56.002;37.208;2023-02-28T01:42:58;99321.02;;;-8.95;82.59
75549;BME280;64133;56.002;37.208;2023-02-28T01:48:03;99311.20;;;-8.90;82.64
75549;BME280;64133;56.002;37.208;2023-02-28T01:53:08;99297.14;;;-8.85;82.73
75549;BME280;64133;56.002;37.208;2023-02-28T01:58:12;99296.34;;;-8.98;82.57
75549;BME280;64133;56.002;37.208;2023-02-28T02:03:17;99284.91;;;-9.01;82.82
75549;BME280;64133;56.002;37.208;2023-02-28T02:08:22;99281.52;;;-9.07;82.78
75549;BME280;64133;56.002;37.208;2023-02-28T02:13:37;99271.66;;;-8.93;82.86
75549;BME280;64133;56.002;37.208;2023-02-28T02:18:41;99263.97;;;-8.88;82.90
75549;BME280;64133;56.002;37.208;2023-02-28T02:35:12;99220.17;;;-8.89;82.87
75549;BME280;64133;56.002;37.208;2023-02-28T02:40:19;99229.52;;;-8.85;83.06
75549;BME280;64133;56.002;37.208;2023-02-28T02:45:25;99213.75;;;-8.78;82.71
75549;BME280;64133;56.002;37.208;2023-02-28T02:50:30;99209.95;;;-8.83;82.59
75549;BME280;64133;56.002;37.208;2023-02-28T02:55:36;99205.69;;;-8.82;82.62
75549;BME280;64133;56.002;37.208;2023-02-28T03:00:40;99195.06;;;-8.85;82.46
75549;BME280;64133;56.002;37.208;2023-02-28T03:05:46;99179.73;;;-8.82;82.36
75549;BME280;64133;56.002;37.208;2023-02-28T03:10:50;99165.28;;;-8.84;82.54
75549;BME280;64133;56.002;37.208;2023-02-28T03:16:01;99157.65;;;-8.86;82.27
75549;BME280;64133;56.002;37.208;2023-02-28T03:21:06;99148.26;;;-8.84;82.33
75549;BME280;64133;56.002;37.208;2023-02-28T03:26:11;99156.38;;;-8.89;82.23
75549;BME280;64133;56.002;37.208;2023-02-28T03:31:16;99153.39;;;-8.86;82.10
75549;BME280;64133;56.002;37.208;2023-02-28T03:36:20;99136.73;;;-8.79;82.01
75549;BME280;64133;56.002;37.208;2023-02-28T03:41:25;99129.97;;;-8.82;81.81
75549;BME280;64133;56.002;37.208;2023-02-28T03:46:30;99121.84;;;-8.77;81.87
75549;BME280;64133;56.002;37.208;2023-02-28T03:51:34;99121.89;;;-8.84;81.68
75549;BME280;64133;56.002;37.208;2023-02-28T03:56:40;99124.89;;;-8.88;81.72
75549;BME280;64133;56.002;37.208;2023-02-28T04:01:44;99112.97;;;-8.84;81.51
75549;BME280;64133;56.002;37.208;2023-02-28T04:06:50;99110.47;;;-8.91;81.65
75549;BME280;64133;56.002;37.208;2023-02-28T04:11:55;99100.23;;;-8.86;81.56
75549;BME280;64133;56.002;37.208;2023-02-28T04:16:59;99093.49;;;-8.95;81.39
75549;BME280;64133;56.002;37.208;2023-02-28T04:22:04;99078.58;;;-8.91;81.46
75549;BME280;64133;56.002;37.208;2023-02-28T04:27:09;99067.43;;;-8.79;81.12
75549;BME280;64133;56.002;37.208;2023-02-28T04:32:14;99063.98;;;-8.75;80.87
75549;BME280;64133;56.002;37.208;2023-02-28T04:37:18;99039.88;;;-8.49;80.61
75549;BME280;64133;56.002;37.208;2023-02-28T04:42:23;99033.70;;;-8.30;80.18
75549;BME280;64133;56.002;37.208;2023-02-28T04:47:28;99022.82;;;-8.10;79.47
75549;BME280;64133;56.002;37.208;2023-02-28T04:52:33;98997.45;;;-7.93;78.96
75549;BME280;64133;56.002;37.208;2023-02-28T04:57:38;98989.52;;;-7.75;78.21
75549;BME280;64133;56.002;37.208;2023-02-28T05:02:42;98979.16;;;-7.64;77.65
75549;BME280;64133;56.002;37.208;2023-02-28T05:07:47;98975.73;;;-7.36;77.15
75549;BME280;64133;56.002;37.208;2023-02-28T05:12:52;98963.67;;;-3.01;77.18
75549;BME280;64133;56.002;37.208;2023-02-28T05:17:56;98940.85;;;1.19;62.22
75549;BME280;64133;56.002;37.208;2023-02-28T05:23:01;98941.91;;;0.27;58.24
75549;BME280;64133;56.002;37.208;2023-02-28T05:28:06;98932.58;;;1.79;57.18
75549;BME280;64133;56.002;37.208;2023-02-28T05:33:12;98921.80;;;3.96;51.25
75549;BME280;64133;56.002;37.208;2023-02-28T05:38:16;98907.12;;;5.16;46.68
75549;BME280;64133;56.002;37.208;2023-02-28T05:43:21;98902.17;;;-0.58;52.58
75549;BME280;64133;56.002;37.208;2023-02-28T05:48:26;98886.79;;;-2.52;57.42
75549;BME280;64133;56.002;37.208;2023-02-28T05:53:31;98856.72;;;-1.96;59.68
75549;BME280;64133;56.002;37.208;2023-02-28T05:58:36;98842.42;;;6.90;46.54
75549;BME280;64133;56.002;37.208;2023-02-28T06:03:42;98834.62;;;3.94;43.90
75549;BME280;64133;56.002;37.208;2023-02-28T06:08:47;98826.99;;;0.97;48.69
75549;BME280;64133;56.002;37.208;2023-02-28T06:13:52;98828.14;;;-1.91;53.86
75549;BME280;64133;56.002;37.208;2023-02-28T06:18:58;98821.27;;;-3.55;56.82
75549;BME280;64133;56.002;37.208;2023-02-28T06:24:02;98822.97;;;-3.94;59.00
75549;BME280;64133;56.002;37.208;2023-02-28T06:29:06;98813.04;;;-4.61;60.73
75549;BME280;64133;56.002;37.208;2023-02-28T06:34:11;98785.61;;;-4.19;60.96
75549;BME280;64133;56.002;37.208;2023-02-28T06:39:16;98771.52;;;-3.94;61.35
75549;BME280;64133;56.002;37.208;2023-02-28T06:44:21;98749.06;;;-4.02;62.05
75549;BME280;64133;56.002;37.208;2023-02-28T06:49:24;98729.02;;;-3.92;61.96
75549;BME280;64133;56.002;37.208;2023-02-28T06:54:28;98723.62;;;-3.60;61.96
75549;BME280;64133;56.002;37.208;2023-02-28T06:59:32;98717.27;;;-3.38;61.62
75549;BME280;64133;56.002;37.208;2023-02-28T07:04:37;98705.17;;;-3.47;62.25
75549;BME280;64133;56.002;37.208;2023-02-28T07:09:40;98691.28;;;-3.08;61.66
75549;BME280;64133;56.002;37.208;2023-02-28T07:14:45;98685.06;;;-3.14;61.88
75549;BME280;64133;56.002;37.208;2023-02-28T07:19:50;98679.70;;;-3.08;61.81
75549;BME280;64133;56.002;37.208;2023-02-28T07:24:53;98690.48;;;-2.65;61.86
75549;BME280;64133;56.002;37.208;2023-02-28T07:29:57;98687.90;;;-2.65;61.55
75549;BME280;64133;56.002;37.208;2023-02-28T07:35:02;98670.05;;;-3.03;62.11
75549;BME280;64133;56.002;37.208;2023-02-28T07:40:09;98661.06;;;-3.50;63.79
75549;BME280;64133;56.002;37.208;2023-02-28T07:45:16;98656.58;;;-3.45;64.45
75549;BME280;64133;56.002;37.208;2023-02-28T07:50:21;98661.21;;;-3.08;64.21
75549;BME280;64133;56.002;37.208;2023-02-28T07:55:24;98644.13;;;-3.10;63.79
75549;BME280;64133;56.002;37.208;2023-02-28T08:00:29;98611.34;;;-3.17;64.15
75549;BME280;64133;56.002;37.208;2023-02-28T08:05:32;98620.75;;;-3.27;64.73
75549;BME280;64133;56.002;37.208;2023-02-28T08:10:37;98626.00;;;-2.97;64.98
75549;BME280;64133;56.002;37.208;2023-02-28T08:15:42;98661.53;;;-2.39;63.85
75549;BME280;64133;56.002;37.208;2023-02-28T08:20:47;98670.72;;;-3.10;64.32
75549;BME280;64133;56.002;37.208;2023-02-28T08:25:55;98682.26;;;-3.78;66.34
75549;BME280;64133;56.002;37.208;2023-02-28T08:30:59;98675.59;;;-3.72;67.00
75549;BME280;64133;56.002;37.208;2023-02-28T08:36:06;98661.09;;;-3.75;67.39
75549;BME280;64133;56.002;37.208;2023-02-28T08:41:11;98654.70;;;-3.51;67.51
75549;BME280;64133;56.002;37.208;2023-02-28T08:46:16;98638.98;;;-3.44;67.59
75549;BME280;64133;56.002;37.208;2023-02-28T08:51:20;98634.70;;;-3.45;67.74
75549;BME280;64133;56.002;37.208;2023-02-28T08:56:26;98625.80;;;-3.36;68.21
75549;BME280;64133;56.002;37.208;2023-02-28T09:01:29;98619.30;;;-3.01;67.91
75549;BME280;64133;56.002;37.208;2023-02-28T09:06:33;98595.09;;;-2.97;67.81
75549;BME280;64133;56.002;37.208;2023-02-28T09:11:37;98614.98;;;-3.00;67.49
75549;BME280;64133;56.002;37.208;2023-02-28T09:16:41;98603.42;;;-3.46;68.47
75549;BME280;64133;56.002;37.208;2023-02-28T09:21:44;98623.56;;;-3.34;68.99
75549;BME280;64133;56.002;37.208;2023-02-28T09:26:49;98607.66;;;-3.21;69.19
75549;BME280;64133;56.002;37.208;2023-02-28T09:31:52;98590.50;;;-3.22;69.34
75549;BME280;64133;56.002;37.208;2023-02-28T09:36:57;98583.14;;;-3.10;69.27
75549;BME280;64133;56.002;37.208;2023-02-28T09:42:02;98575.48;;;-3.11;69.35
75549;BME280;64133;56.002;37.208;2023-02-28T09:47:10;98560.91;;;-2.90;69.44
75549;BME280;64133;56.002;37.208;2023-02-28T09:52:14;98554.11;;;-2.50;68.99
75549;BME280;64133;56.002;37.208;2023-02-28T09:57:19;98548.83;;;-2.68;69.07
75549;BME280;64133;56.002;37.208;2023-02-28T10:02:36;98529.16;;;-2.70;68.76
75549;BME280;64133;56.002;37.208;2023-02-28T10:07:45;98513.97;;;-2.87;69.44
75549;BME280;64133;56.002;37.208;2023-02-28T10:12:47;98516.66;;;-2.80;69.58
75549;BME280;64133;56.002;37.208;2023-02-28T10:17:53;98515.05;;;-2.72;69.60
75549;BME280;64133;56.002;37.208;2023-02-28T10:23:00;98508.20;;;-2.83;69.69
75549;BME280;64133;56.002;37.208;2023-02-28T10:28:10;98515.32;;;-2.47;69.98
75549;BME280;64133;56.002;37.208;2023-02-28T10:33:21;98506.95;;;-2.73;69.74
75549;BME280;64133;56.002;37.208;2023-02-28T10:38:27;98499.19;;;-2.83;70.03
75549;BME280;64133;56.002;37.208;2023-02-28T10:43:39;98486.00;;;-2.86;70.58
75549;BME280;64133;56.002;37.208;2023-02-28T10:48:44;98486.90;;;-2.76;70.42
75549;BME280;64133;56.002;37.208;2023-02-28T10:54:11;98475.38;;;-2.78;70.46
75549;BME280;64133;56.002;37.208;2023-02-28T10:59:29;98465.19;;;-2.81;70.88
75549;BME280;64133;56.002;37.208;2023-02-28T11:05:36;98461.27;;;-2.69;71.06
75549;BME280;64133;56.002;37.208;2023-02-28T11:10:43;98462.91;;;-2.58;71.17
75549;BME280;64133;56.002;37.208;2023-02-28T11:15:49;98456.06;;;-2.39;71.16
75549;BME280;64133;56.002;37.208;2023-02-28T11:20:55;98443.63;;;-2.49;71.42
75549;BME280;64133;56.002;37.208;2023-02-28T11:25:59;98433.98;;;-2.36;71.56
75549;BME280;64133;56.002;37.208;2023-02-28T11:31:08;98435.44;;;-2.20;71.90
75549;BME280;64133;56.002;37.208;2023-02-28T11:36:13;98425.58;;;-2.20;72.13
75549;BME280;64133;56.002;37.208;2023-02-28T11:41:33;98417.46;;;-2.21;72.52
75549;BME280;64133;56.002;37.208;2023-02-28T11:46:39;98410.89;;;-2.29;73.32
75549;BME280;64133;56.002;37.208;2023-02-28T11:51:46;98394.25;;;-2.21;73.68
75549;BME280;64133;56.002;37.208;2023-02-28T11:56:49;98385.22;;;-2.21;73.99
75549;BME280;64133;56.002;37.208;2023-02-28T12:02:05;98387.31;;;-2.30;74.49
75549;BME280;64133;56.002;37.208;2023-02-28T12:07:12;98375.80;;;-2.41;75.07
75549;BME280;64133;56.002;37.208;2023-02-28T12:12:23;98375.97;;;-2.36;75.48
75549;BME280;64133;56.002;37.208;2023-02-28T12:17:34;98372.60;;;-2.46;75.84
75549;BME280;64133;56.002;37.208;2023-02-28T12:22:39;98370.61;;;-2.50;76.35
75549;BME280;64133;56.002;37.208;2023-02-28T12:27:44;98355.70;;;-2.43;76.62
75549;BME280;64133;56.002;37.208;2023-02-28T12:32:48;98344.31;;;-2.48;76.69
75549;BME280;64133;56.002;37.208;2023-02-28T12:37:55;98339.16;;;-2.48;76.56
75549;BME280;64133;56.002;37.208;2023-02-28T12:42:59;98324.66;;;-2.50;76.85
75549;BME280;64133;56.002;37.208;2023-02-28T12:48:06;98314.91;;;-2.35;76.70
75549;BME280;64133;56.002;37.208;2023-02-28T12:53:11;98309.30;;;-2.43;76.55
75549;BME280;64133;56.002;37.208;2023-02-28T12:58:19;98300.44;;;-2.38;76.95
75549;BME280;64133;56.002;37.208;2023-02-28T13:03:41;98292.63;;;-2.28;76.86
75549;BME280;64133;56.002;37.208;2023-02-28T13:09:05;98287.19;;;-2.30;76.91
75549;BME280;64133;56.002;37.208;2023-02-28T13:14:20;98276.92;;;-2.32;76.96
75549;BME280;64133;56.002;37.208;2023-02-28T13:19:25;98283.56;;;-2.26;77.10
75549;BME280;64133;56.002;37.208;2023-02-28T13:35:50;98239.54;;;-2.23;77.67
75549;BME280;64133;56.002;37.208;2023-02-28T13:40:54;98251.84;;;-2.11;77.43
75549;BME280;64133;56.002;37.208;2023-02-28T13:46:12;98254.42;;;-2.19;77.73
75549;BME280;64133;56.002;37.208;2023-02-28T13:51:40;98255.20;;;-2.17;77.95
75549;BME280;64133;56.002;37.208;2023-02-28T13:56:46;98253.46;;;-2.08;77.85
75549;BME280;64133;56.002;37.208;2023-02-28T14:02:06;98256.86;;;-2.16;77.96
75549;BME280;64133;56.002;37.208;2023-02-28T14:07:08;98255.02;;;-2.23;78.40
75549;BME280;64133;56.002;37.208;2023-02-28T14:17:53;98246.91;;;-2.24;79.11
75549;BME280;64133;56.002;37.208;2023-02-28T14:23:00;98231.43;;;-2.24;79.29
75549;BME280;64133;56.002;37.208;2023-02-28T14:28:08;98217.11;;;-2.12;79.41
75549;BME280;64133;56.002;37.208;2023-02-28T14:38:35;98212.87;;;-2.13;79.59
75549;BME280;64133;56.002;37.208;2023-02-28T14:43:47;98213.24;;;-2.12;79.54
75549;BME280;64133;56.002;37.208;2023-02-28T14:48:43;98210.48;;;-2.09;79.79
75549;BME280;64133;56.002;37.208;2023-02-28T14:53:49;98211.03;;;-2.11;79.86
75549;BME280;64133;56.002;37.208;2023-02-28T14:58:54;98215.05;;;-2.06;80.04
75549;BME280;64133;56.002;37.208;2023-02-28T15:04:00;98202.09;;;-2.04;80.09
75549;BME280;64133;56.002;37.208;2023-02-28T15:09:13;98207.17;;;-2.03;80.14
75549;BME280;64133;56.002;37.208;2023-02-28T15:14:20;98202.61;;;-1.97;80.32
75549;BME280;64133;56.002;37.208;2023-02-28T15:19:24;98192.28;;;-1.97;80.28
75549;BME280;64133;56.002;37.208;2023-02-28T15:24:34;98192.28;;;-1.89;80.34
75549;BME280;64133;56.002;37.208;2023-02-28T15:29:41;98194.17;;;-1.92;80.48
75549;BME280;64133;56.002;37.208;2023-02-28T15:34:43;98181.73;;;-1.93;80.72
75549;BME280;64133;56.002;37.208;2023-02-28T15:39:48;98187.27;;;-1.92;80.90
75549;BME280;64133;56.002;37.208;2023-02-28T15:44:53;98183.16;;;-1.87;81.12
75549;BME280;64133;56.002;37.208;2023-02-28T15:49:58;98185.31;;;-1.87;81.20
75549;BME280;64133;56.002;37.208;2023-02-28T15:55:09;98182.31;;;-1.79;81.27
75549;BME280;64133;56.002;37.208;2023-02-28T16:00:18;98182.94;;;-1.74;81.34
75549;BME280;64133;56.002;37.208;2023-02-28T16:05:24;98186.95;;;-1.68;81.48
75549;BME280;64133;56.002;37.208;2023-02-28T16:10:32;98184.00;;;-1.69;81.76
75549;BME280;64133;56.002;37.208;2023-02-28T16:15:37;98188.92;;;-1.65;81.66
75549;BME280;64133;56.002;37.208;2023-02-28T16:20:43;98184.34;;;-1.60;81.68
75549;BME280;64133;56.002;37.208;2023-02-28T16:25:48;98184.04;;;-1.62;81.76
75549;BME280;64133;56.002;37.208;2023-02-28T16:30:53;98180.49;;;-1.68;81.94
75549;BME280;64133;56.002;37.208;2023-02-28T16:35:57;98176.62;;;-1.68;82.30
75549;BME280;64133;56.002;37.208;2023-02-28T16:41:02;98172.30;;;-1.77;82.56
75549;BME280;64133;56.002;37.208;2023-02-28T16:46:08;98176.09;;;-1.84;82.70
75549;BME280;64133;56.002;37.208;2023-02-28T16:51:14;98176.57;;;-1.93;83.09
75549;BME280;64133;56.002;37.208;2023-02-28T16:56:19;98171.65;;;-2.06;83.02
75549;BME280;64133;56.002;37.208;2023-02-28T17:01:23;98165.28;;;-2.08;83.38
75549;BME280;64133;56.002;37.208;2023-02-28T17:06:28;98166.72;;;-2.02;83.49
75549;BME280;64133;56.002;37.208;2023-02-28T17:11:33;98158.50;;;-1.93;83.46
75549;BME280;64133;56.002;37.208;2023-02-28T17:16:38;98164.35;;;-1.89;83.25
75549;BME280;64133;56.002;37.208;2023-02-28T17:21:43;98173.05;;;-1.74;83.11
75549;BME280;64133;56.002;37.208;2023-02-28T17:26:48;98180.94;;;-1.60;82.79
75549;BME280;64133;56.002;37.208;2023-02-28T17:31:53;98215.33;;;-1.60;82.31
75549;BME280;64133;56.002;37.208;2023-02-28T17:36:57;98219.69;;;-2.04;81.87
75549;BME280;64133;56.002;37.208;2023-02-28T17:42:02;98213.50;;;-2.36;83.04
75549;BME280;64133;56.002;37.208;2023-02-28T17:47:08;98213.72;;;-2.49;83.59
75549;BME280;64133;56.002;37.208;2023-02-28T17:52:13;98199.84;;;-2.55;84.03
75549;BME280;64133;56.002;37.208;2023-02-28T17:57:18;98198.21;;;-2.66;84.24
75549;BME280;64133;56.002;37.208;2023-02-28T18:02:24;98198.30;;;-2.68;84.43
75549;BME280;64133;56.002;37.208;2023-02-28T18:07:29;98198.45;;;-2.62;84.44
75549;BME280;64133;56.002;37.208;2023-02-28T18:12:33;98206.96;;;-2.60;84.25
75549;BME280;64133;56.002;37.208;2023-02-28T18:17:38;98207.69;;;-2.67;83.90
75549;BME280;64133;56.002;37.208;2023-02-28T18:22:43;98222.80;;;-2.59;83.40
75549;BME280;64133;56.002;37.208;2023-02-28T18:27:47;98222.95;;;-2.54;83.03
75549;BME280;64133;56.002;37.208;2023-02-28T18:33:00;98228.11;;;-2.54;82.53
75549;BME280;64133;56.002;37.208;2023-02-28T18:38:06;98229.51;;;-2.46;82.09
75549;BME280;64133;56.002;37.208;2023-02-28T18:43:10;98229.37;;;-2.43;81.20
75549;BME280;64133;56.002;37.208;2023-02-28T18:48:15;98234.12;;;-2.44;80.44
75549;BME280;64133;56.002;37.208;2023-02-28T18:53:19;98232.19;;;-2.39;79.69
75549;BME280;64133;56.002;37.208;2023-02-28T18:58:24;98240.21;;;-2.37;78.86
75549;BME280;64133;56.002;37.208;2023-02-28T19:03:29;98243.31;;;-2.47;78.13
75549;BME280;64133;56.002;37.208;2023-02-28T19:08:33;98232.90;;;-2.55;77.54
75549;BME280;64133;56.002;37.208;2023-02-28T19:13:38;98235.39;;;-2.53;76.52
75549;BME280;64133;56.002;37.208;2023-02-28T19:18:43;98232.98;;;-2.56;74.77
75549;BME280;64133;56.002;37.208;2023-02-28T19:23:47;98222.03;;;-2.70;73.15
75549;BME280;64133;56.002;37.208;2023-02-28T19:28:52;98226.41;;;-3.10;72.08
75549;BME280;64133;56.002;37.208;2023-02-28T19:33:57;98232.30;;;-3.35;70.80
75549;BME280;64133;56.002;37.208;2023-02-28T19:39:02;98240.44;;;-3.65;70.81
75549;BME280;64133;56.002;37.208;2023-02-28T19:44:07;98249.36;;;-3.84;70.08
75549;BME280;64133;56.002;37.208;2023-02-28T19:49:11;98253.67;;;-3.84;69.86
75549;BME280;64133;56.002;37.208;2023-02-28T19:54:18;98262.75;;;-3.86;68.79
75549;BME280;64133;56.002;37.208;2023-02-28T19:59:24;98261.17;;;-4.10;68.25
75549;BME280;64133;56.002;37.208;2023-02-28T20:04:28;98262.56;;;-4.23;68.05
75549;BME280;64133;56.002;37.208;2023-02-28T20:09:33;98252.27;;;-4.34;67.69
75549;BME280;64133;56.002;37.208;2023-02-28T20:14:37;98240.02;;;-4.49;67.38
75549;BME280;64133;56.002;37.208;2023-02-28T20:19:41;98241.55;;;-4.55;67.10
75549;BME280;64133;56.002;37.208;2023-02-28T20:24:46;98235.15;;;-4.67;67.11
75549;BME280;64133;56.002;37.208;2023-02-28T20:29:51;98236.75;;;-4.74;66.82
75549;BME280;64133;56.002;37.208;2023-02-28T20:34:54;98235.69;;;-4.81;66.24
75549;BME280;64133;56.002;37.208;2023-02-28T20:39:59;98237.70;;;-4.77;65.66
75549;BME280;64133;56.002;37.208;2023-02-28T20:45:04;98255.68;;;-4.89;65.59
75549;BME280;64133;56.002;37.208;2023-02-28T20:50:13;98242.46;;;-5.01;65.19
75549;BME280;64133;56.002;37.208;2023-02-28T20:55:18;98240.17;;;-4.97;65.07
75549;BME280;64133;56.002;37.208;2023-02-28T21:00:24;98237.50;;;-5.06;64.61
75549;BME280;64133;56.002;37.208;2023-02-28T21:05:28;98236.45;;;-5.12;64.51
75549;BME280;64133;56.002;37.208;2023-02-28T21:10:33;98235.45;;;-5.20;64.59
75549;BME280;64133;56.002;37.208;2023-02-28T21:15:38;98236.55;;;-5.27;64.71
75549;BME280;64133;56.002;37.208;2023-02-28T21:20:43;98248.15;;;-5.40;64.75
75549;BME280;64133;56.002;37.208;2023-02-28T21:25:47;98245.65;;;-5.42;64.81
75549;BME280;64133;56.002;37.208;2023-02-28T21:30:51;98248.19;;;-5.53;65.00
75549;BME280;64133;56.002;37.208;2023-02-28T21:36:01;98243.48;;;-5.52;64.86
75549;BME280;64133;56.002;37.208;2023-02-28T21:41:07;98248.91;;;-5.62;64.97
75549;BME280;64133;56.002;37.208;2023-02-28T21:46:12;98246.34;;;-5.73;65.18
75549;BME280;64133;56.002;37.208;2023-02-28T21:51:17;98246.59;;;-5.81;65.29
75549;BME280;64133;56.002;37.208;2023-02-28T21:56:22;98241.39;;;-5.91;65.52
75549;BME280;64133;56.002;37.208;2023-02-28T22:01:27;98250.05;;;-5.94;65.48
75549;BME280;64133;56.002;37.208;2023-02-28T22:06:33;98252.92;;;-6.03;65.60
75549;BME280;64133;56.002;37.208;2023-02-28T22:11:38;98250.95;;;-6.08;65.88
75549;BME280;64133;56.002;37.208;2023-02-28T22:16:43;98248.64;;;-6.16;65.89
75549;BME280;64133;56.002;37.208;2023-02-28T22:21:47;98249.77;;;-6.24;66.00
75549;BME280;64133;56.002;37.208;2023-02-28T22:26:52;98249.92;;;-6.29;66.15
75549;BME280;64133;56.002;37.208;2023-02-28T22:31:56;98250.02;;;-6.32;66.07
75549;BME280;64133;56.002;37.208;2023-02-28T22:37:00;98240.52;;;-6.42;66.12
75549;BME280;64133;56.002;37.208;2023-02-28T22:42:04;98248.10;;;-6.52;66.23
75549;BME280;64133;56.002;37.208;2023-02-28T22:47:08;98239.01;;;-6.62;66.64
75549;BME280;64133;56.002;37.208;2023-02-28T22:52:13;98236.89;;;-6.63;66.71
75549;BME280;64133;56.002;37.208;2023-02-28T22:57:18;98233.20;;;-6.67;66.72
75549;BME280;64133;56.002;37.208;2023-02-28T23:02:24;98234.30;;;-6.74;66.82
75549;BME280;64133;56.002;37.208;2023-02-28T23:07:28;98233.55;;;-6.78;66.86
75549;BME280;64133;56.002;37.208;2023-02-28T23:12:33;98226.86;;;-6.84;67.00
75549;BME280;64133;56.002;37.208;2023-02-28T23:17:38;98232.63;;;-6.90;67.07
75549;BME280;64133;56.002;37.208;2023-02-28T23:22:41;98230.52;;;-6.91;67.05
75549;BME280;64133;56.002;37.208;2023-02-28T23:27:47;98216.41;;;-7.04;66.99
75549;BME280;64133;56.002;37.208;2023-02-28T23:32:51;98223.95;;;-6.99;66.93
75549;BME280;64133;56.002;37.208;2023-02-28T23:37:57;98233.13;;;-7.07;66.88
75549;BME280;64133;56.002;37.208;2023-02-28T23:43:02;98214.45;;;-7.11;67.04
75549;BME280;64133;56.002;37.208;2023-02-28T23:48:05;98229.36;;;-7.10;66.93
75549;BME280;64133;56.002;37.208;2023-02-28T23:53:10;98219.63;;;-7.12;66.91
75549;BME280;64133;56.002;37.208;2023-02-28T23:58:15;98221.96;;;-7.19;67.01
